Time;durP1;ratioP1;P1;durP2;ratioP2;P2;SDS_P1;SDS_P2;PMS_P1;PMS_P2;Temp;Humidity;BMP_temperature;BMP_pressure;BME280_temperature;BME280_humidity;BME280_pressure;Samples;Min_cycle;Max_cycle;Signal;HPM_P1;HPM_P2
2022/04/14 00:01:38;;;;;;;3.40;1.65;;;18.50;56.90;;;;;;4950414;28;20286;-57
2022/04/14 00:04:09;;;;;;;2.40;1.40;;;18.50;55.90;;;;;;4950708;28;20305;-56
2022/04/14 00:06:42;;;;;;;5.05;1.52;;;18.60;55.70;;;;;;4949298;28;20281;-59
2022/04/14 00:09:12;;;;;;;4.65;1.63;;;18.60;55.60;;;;;;4950508;28;20671;-57
2022/04/14 00:11:43;;;;;;;1.63;1.20;;;18.70;55.60;;;;;;4949035;28;20282;-59
2022/04/14 00:14:15;;;;;;;2.95;1.55;;;18.70;55.60;;;;;;4951656;28;20201;-57
2022/04/14 00:16:46;;;;;;;2.83;1.42;;;18.80;55.60;;;;;;4953725;28;20285;-60
2022/04/14 00:19:16;;;;;;;2.63;1.42;;;18.80;55.60;;;;;;4952865;28;20285;-59
2022/04/14 00:21:47;;;;;;;3.17;1.65;;;18.80;55.50;;;;;;4953888;28;20203;-58
2022/04/14 00:24:17;;;;;;;2.20;1.40;;;18.80;55.60;;;;;;4951567;28;20287;-57
2022/04/14 00:26:48;;;;;;;3.92;1.35;;;18.80;55.50;;;;;;4953424;28;20639;-58
2022/04/14 00:29:20;;;;;;;1.85;1.00;;;18.90;55.30;;;;;;4953271;28;20707;-57
2022/04/14 00:31:50;;;;;;;1.88;1.13;;;18.90;55.30;;;;;;4952860;28;20278;-59
2022/04/14 00:34:21;;;;;;;2.33;1.00;;;18.90;55.70;;;;;;4953393;28;20314;-59
2022/04/14 00:36:51;;;;;;;2.45;1.05;;;19.00;55.70;;;;;;4953444;28;20287;-59
2022/04/14 00:39:22;;;;;;;3.40;1.30;;;19.00;55.60;;;;;;4953046;28;20286;-59
2022/04/14 00:41:52;;;;;;;1.67;0.90;;;19.10;55.60;;;;;;4953559;28;20295;-57
2022/04/14 00:44:24;;;;;;;2.53;0.98;;;19.10;55.60;;;;;;4953010;29;20298;-57
2022/04/14 00:46:55;;;;;;;2.83;1.08;;;19.20;55.50;;;;;;4953724;28;20675;-56
2022/04/14 00:49:26;;;;;;;1.35;0.93;;;19.20;55.20;;;;;;4953230;28;20287;-57
2022/04/14 00:51:56;;;;;;;2.88;1.05;;;19.20;55.00;;;;;;4953433;28;20635;-57
2022/04/14 00:54:26;;;;;;;1.45;0.80;;;19.20;54.90;;;;;;4952962;28;20310;-58
2022/04/14 00:56:57;;;;;;;2.65;1.05;;;19.30;54.90;;;;;;4953098;28;20195;-57
2022/04/14 00:59:30;;;;;;;1.73;0.80;;;19.30;54.90;;;;;;4953207;28;20299;-58
2022/04/14 01:02:01;;;;;;;1.80;0.80;;;19.30;54.80;;;;;;4953027;28;20787;-58
2022/04/14 01:04:33;;;;;;;2.65;1.10;;;19.40;54.80;;;;;;4952516;28;20195;-58
2022/04/14 01:07:04;;;;;;;2.65;1.30;;;19.40;54.70;;;;;;4953896;28;20312;-57
2022/04/14 01:09:36;;;;;;;2.35;0.98;;;19.50;54.70;;;;;;4952364;28;21631;-58
2022/04/14 01:12:07;;;;;;;3.05;0.90;;;19.50;54.60;;;;;;4951994;29;20218;-57
2022/04/14 01:14:40;;;;;;;2.00;0.95;;;19.50;54.60;;;;;;4952960;28;20213;-58
2022/04/14 01:17:12;;;;;;;2.03;0.80;;;19.60;54.60;;;;;;4950883;29;20282;-58
2022/04/14 01:19:43;;;;;;;3.55;0.90;;;19.60;54.60;;;;;;4950658;28;20286;-58
2022/04/14 01:22:24;;;;;;;2.75;1.15;;;19.60;54.50;;;;;;4952942;28;20281;-57
2022/04/14 01:24:58;;;;;;;2.78;1.10;;;19.70;54.50;;;;;;4949589;28;20199;-57
2022/04/14 01:27:29;;;;;;;2.80;1.13;;;19.70;54.50;;;;;;4952634;28;20671;-58
2022/04/14 01:30:00;;;;;;;1.90;0.80;;;19.80;54.50;;;;;;4949501;28;20310;-56
2022/04/14 01:32:31;;;;;;;1.50;0.82;;;19.80;54.30;;;;;;4951768;28;20230;-56
2022/04/14 01:35:01;;;;;;;2.72;1.15;;;19.80;54.30;;;;;;4952502;28;20286;-57
2022/04/14 01:37:31;;;;;;;6.90;1.45;;;19.80;54.20;;;;;;4953386;28;20282;-58
2022/04/14 01:40:04;;;;;;;2.03;0.90;;;19.90;54.20;;;;;;4952164;28;20249;-57
2022/04/14 01:42:34;;;;;;;2.35;1.02;;;19.90;54.20;;;;;;4951953;28;20301;-57
2022/04/14 01:45:05;;;;;;;1.90;0.90;;;20.00;54.20;;;;;;4950393;28;20199;-56
2022/04/14 01:47:39;;;;;;;2.88;1.05;;;20.00;54.10;;;;;;4951764;28;20278;-57
2022/04/14 01:50:12;;;;;;;2.50;0.75;;;20.00;54.00;;;;;;4952525;28;20722;-57
2022/04/14 01:52:44;;;;;;;2.45;1.05;;;20.10;54.00;;;;;;4952395;28;20226;-57
2022/04/14 01:55:16;;;;;;;1.90;0.80;;;20.10;54.00;;;;;;4952487;28;20199;-57
2022/04/14 01:57:46;;;;;;;3.25;1.10;;;20.10;53.80;;;;;;4951754;28;20674;-57
2022/04/14 02:00:17;;;;;;;1.95;1.10;;;20.20;53.90;;;;;;4952194;28;20622;-57
2022/04/14 02:02:48;;;;;;;2.65;1.10;;;20.20;53.80;;;;;;4951452;28;20322;-57
2022/04/14 02:05:18;;;;;;;2.13;0.85;;;20.20;53.80;;;;;;4952263;28;20199;-57
2022/04/14 02:07:49;;;;;;;2.28;1.15;;;20.20;53.80;;;;;;4951895;28;20221;-57
2022/04/14 02:10:21;;;;;;;1.77;0.90;;;20.30;53.80;;;;;;4951298;28;20307;-57
2022/04/14 02:12:51;;;;;;;3.95;1.05;;;20.30;53.80;;;;;;4951379;29;20223;-58
2022/04/14 02:15:22;;;;;;;1.77;1.00;;;20.30;53.60;;;;;;4951839;28;20290;-56
2022/04/14 02:17:52;;;;;;;1.75;0.80;;;20.40;53.60;;;;;;4951654;28;20282;-57
2022/04/14 02:20:23;;;;;;;2.17;0.85;;;20.40;53.60;;;;;;4951623;28;20290;-57
2022/04/14 02:22:53;;;;;;;2.40;0.95;;;20.40;53.60;;;;;;4951893;28;20774;-58
2022/04/14 02:25:26;;;;;;;2.97;0.93;;;20.40;53.60;;;;;;4952045;28;20274;-57
2022/04/14 02:27:56;;;;;;;2.30;1.02;;;20.50;53.70;;;;;;4950682;29;20747;-57
2022/04/14 02:30:27;;;;;;;1.17;0.80;;;20.50;53.50;;;;;;4951984;28;20274;-57
2022/04/14 02:32:57;;;;;;;3.35;1.17;;;20.50;53.50;;;;;;4951053;28;20226;-57
2022/04/14 02:35:28;;;;;;;2.05;1.00;;;20.60;53.50;;;;;;4950165;28;20624;-57
2022/04/14 02:37:58;;;;;;;2.67;0.93;;;20.60;53.40;;;;;;4949282;28;20314;-58
2022/04/14 02:40:30;;;;;;;1.60;0.90;;;20.60;53.40;;;;;;4950944;28;20686;-58
2022/04/14 02:43:01;;;;;;;2.33;1.10;;;20.60;53.30;;;;;;4949927;28;20641;-57
2022/04/14 02:45:31;;;;;;;2.83;1.05;;;20.60;53.30;;;;;;4950201;28;20199;-57
2022/04/14 02:48:02;;;;;;;3.28;0.98;;;20.70;53.30;;;;;;4948891;28;20214;-58
2022/04/14 02:50:32;;;;;;;2.13;1.08;;;20.70;53.30;;;;;;4948112;28;20654;-57
2022/04/14 02:53:03;;;;;;;3.33;0.90;;;20.70;53.20;;;;;;4950374;28;20999;-58
2022/04/14 02:55:35;;;;;;;2.25;1.13;;;20.70;53.10;;;;;;4951138;28;20302;-58
2022/04/14 02:58:06;;;;;;;3.85;1.15;;;20.70;53.10;;;;;;4951273;28;20285;-57
2022/04/14 03:00:36;;;;;;;2.83;0.90;;;20.80;53.00;;;;;;4950777;28;20194;-58
2022/04/14 03:03:07;;;;;;;1.95;1.02;;;20.80;53.00;;;;;;4951108;28;20229;-58
2022/04/14 03:05:37;;;;;;;1.27;0.85;;;20.80;52.90;;;;;;4950954;28;20226;-59
2022/04/14 03:08:08;;;;;;;2.38;0.90;;;20.80;52.80;;;;;;4950985;28;20230;-58
2022/04/14 03:10:40;;;;;;;3.15;1.10;;;20.90;52.70;;;;;;4950046;28;20226;-58
2022/04/14 03:13:11;;;;;;;2.00;0.77;;;20.90;52.60;;;;;;4950566;28;20657;-58
2022/04/14 03:15:42;;;;;;;2.10;0.93;;;20.90;52.60;;;;;;4950476;28;20286;-57
2022/04/14 03:18:12;;;;;;;2.63;0.88;;;20.90;52.60;;;;;;4947252;29;20191;-58
2022/04/14 03:20:43;;;;;;;2.25;0.90;;;20.90;52.60;;;;;;4950435;28;20286;-58
2022/04/14 03:23:13;;;;;;;3.15;1.02;;;20.90;52.60;;;;;;4950439;28;20309;-56
2022/04/14 03:25:46;;;;;;;2.08;0.88;;;21.00;52.60;;;;;;4950447;28;20198;-57
2022/04/14 03:28:16;;;;;;;3.60;1.20;;;21.00;52.60;;;;;;4950476;28;20656;-56
2022/04/14 03:30:47;;;;;;;2.95;0.80;;;21.00;52.60;;;;;;4950656;28;20226;-57
2022/04/14 03:33:17;;;;;;;3.13;0.90;;;21.10;52.50;;;;;;4950005;28;20230;-57
2022/04/14 03:35:48;;;;;;;3.20;1.15;;;21.10;53.10;;;;;;4950284;28;20191;-57
2022/04/14 03:38:18;;;;;;;1.95;0.90;;;21.10;52.40;;;;;;4949717;28;20402;-57
2022/04/14 03:40:50;;;;;;;2.58;1.20;;;21.20;52.40;;;;;;4950780;28;20747;-57
2022/04/14 03:43:21;;;;;;;3.08;1.20;;;21.20;52.30;;;;;;4950139;28;20305;-57
2022/04/14 03:45:51;;;;;;;3.60;1.08;;;21.20;52.30;;;;;;4950372;28;21180;-57
2022/04/14 03:48:22;;;;;;;2.75;0.85;;;21.30;52.30;;;;;;4948726;28;20727;-58
2022/04/14 03:50:52;;;;;;;3.72;1.13;;;21.30;52.20;;;;;;4949595;28;20213;-57
2022/04/14 03:53:23;;;;;;;2.38;1.10;;;21.40;52.30;;;;;;4950793;28;20309;-57
2022/04/14 03:55:55;;;;;;;3.40;1.08;;;21.40;52.20;;;;;;4950121;29;20652;-57
2022/04/14 03:58:26;;;;;;;3.15;1.13;;;21.50;52.20;;;;;;4949608;28;20735;-59
2022/04/14 04:00:57;;;;;;;2.97;1.10;;;21.50;52.10;;;;;;4949705;28;20887;-58
2022/04/14 04:03:27;;;;;;;2.75;1.05;;;21.50;52.00;;;;;;4950834;28;20233;-57
2022/04/14 04:05:57;;;;;;;3.08;1.05;;;21.60;52.00;;;;;;4949980;28;20283;-57
2022/04/14 04:08:28;;;;;;;3.88;1.17;;;21.60;52.00;;;;;;4950177;28;20226;-58
2022/04/14 04:11:01;;;;;;;2.38;0.98;;;21.70;51.80;;;;;;4949609;28;20246;-57
2022/04/14 04:13:31;;;;;;;2.63;1.08;;;21.70;51.70;;;;;;4948540;29;20219;-57
2022/04/14 04:16:03;;;;;;;2.35;1.00;;;21.70;51.70;;;;;;4950627;28;20285;-57
2022/04/14 04:18:34;;;;;;;1.90;0.98;;;21.80;51.70;;;;;;4949664;28;20290;-56
2022/04/14 04:21:04;;;;;;;4.22;1.33;;;21.80;51.50;;;;;;4950374;28;20294;-55
2022/04/14 04:23:35;;;;;;;2.70;1.00;;;21.80;51.50;;;;;;4949576;28;20310;-57
2022/04/14 04:26:07;;;;;;;3.05;1.02;;;21.80;51.40;;;;;;4950256;28;20258;-56
2022/04/14 04:28:37;;;;;;;2.63;1.02;;;21.90;51.40;;;;;;4949705;28;20221;-58
2022/04/14 04:31:08;;;;;;;2.55;0.90;;;21.90;51.30;;;;;;4950119;28;20285;-58
2022/04/14 04:33:38;;;;;;;3.28;1.20;;;22.00;51.20;;;;;;4949792;28;20302;-56
2022/04/14 04:36:10;;;;;;;3.30;1.35;;;22.00;51.20;;;;;;4946967;28;20719;-58
2022/04/14 04:38:41;;;;;;;1.83;0.95;;;22.00;51.10;;;;;;4949188;29;20195;-56
2022/04/14 04:41:13;;;;;;;2.53;1.20;;;22.00;51.00;;;;;;4949873;29;20278;-57
2022/04/14 04:43:44;;;;;;;5.10;1.50;;;22.00;51.00;;;;;;4950553;28;20279;-58
2022/04/14 04:46:15;;;;;;;3.20;1.27;;;22.10;51.00;;;;;;4949580;28;20209;-57
2022/04/14 04:48:46;;;;;;;2.72;1.20;;;22.10;51.00;;;;;;4949989;28;20187;-57
2022/04/14 04:51:17;;;;;;;2.80;1.35;;;22.10;51.00;;;;;;4949968;28;20267;-58
2022/04/14 04:53:47;;;;;;;3.80;1.30;;;22.10;50.90;;;;;;4948528;28;20227;-57
2022/04/14 04:56:20;;;;;;;2.58;1.20;;;22.10;50.90;;;;;;4949398;28;20282;-57
2022/04/14 04:58:50;;;;;;;1.88;1.00;;;22.10;50.90;;;;;;4950069;28;20230;-57
2022/04/14 05:01:21;;;;;;;3.95;1.33;;;22.10;50.90;;;;;;4953699;28;20283;-58
2022/04/14 05:03:51;;;;;;;3.08;1.42;;;22.20;50.90;;;;;;4953390;28;20230;-57
2022/04/14 05:06:22;;;;;;;3.55;1.58;;;22.10;50.90;;;;;;4951972;28;20204;-57
2022/04/14 05:08:52;;;;;;;3.20;1.55;;;22.10;50.90;;;;;;4950232;28;20302;-58
2022/04/14 05:11:24;;;;;;;3.45;1.95;;;22.10;50.90;;;;;;4951472;29;20293;-58
2022/04/14 05:13:55;;;;;;;3.53;2.10;;;22.20;50.90;;;;;;4952984;29;20314;-58
2022/04/14 05:16:25;;;;;;;3.58;1.83;;;22.10;50.90;;;;;;4953295;28;20206;-57
2022/04/14 05:18:56;;;;;;;3.53;2.08;;;22.10;50.90;;;;;;4951985;28;20298;-57
2022/04/14 05:21:26;;;;;;;5.25;1.98;;;22.10;50.80;;;;;;4953169;28;20286;-57
2022/04/14 05:23:57;;;;;;;3.97;2.28;;;22.10;50.80;;;;;;4952695;28;20598;-57
2022/04/14 05:26:29;;;;;;;4.13;2.40;;;22.10;50.80;;;;;;4950569;28;20234;-57
2022/04/14 05:28:59;;;;;;;5.20;2.38;;;22.10;50.80;;;;;;4951163;28;20736;-55
2022/04/14 05:31:30;;;;;;;5.72;2.40;;;22.20;50.80;;;;;;4951486;28;20281;-57
2022/04/14 05:34:00;;;;;;;3.90;2.60;;;22.20;50.80;;;;;;4953851;28;20238;-57
2022/04/14 05:36:31;;;;;;;3.20;2.30;;;22.20;50.70;;;;;;4952280;28;20282;-57
2022/04/14 05:39:01;;;;;;;5.60;2.58;;;22.20;50.70;;;;;;4952137;28;20195;-58
2022/04/14 05:41:34;;;;;;;6.45;3.50;;;22.20;50.70;;;;;;4953229;28;20195;-58
2022/04/14 05:44:05;;;;;;;7.53;4.50;;;22.20;50.70;;;;;;4953304;28;20226;-57
2022/04/14 05:46:35;;;;;;;7.85;5.35;;;22.20;50.70;;;;;;4951528;28;20282;-58
2022/04/14 05:49:05;;;;;;;11.20;6.00;;;22.10;50.70;;;;;;4951704;28;20286;-57
2022/04/14 05:51:36;;;;;;;9.25;5.68;;;22.20;50.80;;;;;;4952375;28;20197;-57
2022/04/14 05:54:06;;;;;;;13.40;6.47;;;22.20;50.80;;;;;;4952218;28;20245;-58
2022/04/14 05:56:39;;;;;;;10.57;6.53;;;22.10;50.90;;;;;;4952456;28;20291;-58
2022/04/14 05:59:16;;;;;;;9.98;6.45;;;22.10;51.00;;;;;;4951660;28;20213;-58
2022/04/14 06:01:46;;;;;;;10.60;6.32;;;22.10;51.10;;;;;;4950639;28;20226;-59
2022/04/14 06:04:17;;;;;;;9.77;6.05;;;22.10;51.20;;;;;;4951573;28;20309;-59
2022/04/14 06:06:47;;;;;;;9.15;5.80;;;22.10;51.20;;;;;;4951931;28;20281;-59
2022/04/14 06:09:18;;;;;;;8.40;5.47;;;22.10;51.10;;;;;;4951203;28;20278;-56
2022/04/14 06:11:51;;;;;;;9.30;6.22;;;22.00;51.20;;;;;;4950646;28;20199;-57
2022/04/14 06:14:22;;;;;;;10.15;6.28;;;22.10;51.10;;;;;;4951598;28;20683;-58
2022/04/14 06:16:52;;;;;;;8.20;5.57;;;22.00;51.10;;;;;;4951738;28;20290;-59
2022/04/14 06:19:22;;;;;;;9.85;5.93;;;22.00;51.20;;;;;;4951762;28;20710;-58
2022/04/14 06:21:53;;;;;;;7.75;5.32;;;22.00;51.20;;;;;;4951901;28;20736;-59
2022/04/14 06:24:23;;;;;;;8.23;5.55;;;21.90;51.20;;;;;;4951664;28;20305;-58
2022/04/14 06:26:56;;;;;;;9.40;5.47;;;21.90;51.30;;;;;;4949389;28;20202;-60
2022/04/14 06:29:26;;;;;;;7.05;4.80;;;21.80;51.20;;;;;;4950949;28;20218;-56
2022/04/14 06:31:56;;;;;;;9.65;5.28;;;21.80;51.30;;;;;;4951340;28;20289;-60
2022/04/14 06:34:27;;;;;;;8.00;5.25;;;21.70;51.20;;;;;;4950977;28;20782;-57
2022/04/14 06:36:57;;;;;;;9.73;5.35;;;21.70;51.20;;;;;;4951190;28;20609;-60
2022/04/14 06:39:28;;;;;;;8.75;4.93;;;21.70;51.20;;;;;;4951425;28;20727;-59
2022/04/14 06:42:00;;;;;;;7.55;4.90;;;21.70;51.30;;;;;;4951058;29;20895;-58
2022/04/14 06:44:31;;;;;;;7.28;5.20;;;21.60;51.30;;;;;;4951253;28;20250;-59
2022/04/14 06:47:01;;;;;;;7.40;5.20;;;21.60;51.30;;;;;;4950714;29;20667;-58
2022/04/14 06:49:32;;;;;;;7.03;5.00;;;21.50;51.30;;;;;;4951066;28;20274;-59
2022/04/14 06:52:03;;;;;;;7.75;5.25;;;21.50;51.40;;;;;;4950518;29;20281;-58
2022/04/14 06:54:33;;;;;;;7.13;5.00;;;21.40;51.40;;;;;;4950415;29;20714;-57
2022/04/14 06:57:06;;;;;;;7.53;4.63;;;21.40;51.40;;;;;;4951562;28;20719;-58
2022/04/14 06:59:37;;;;;;;7.72;5.18;;;21.30;51.50;;;;;;4949874;28;20202;-60
2022/04/14 07:02:07;;;;;;;7.10;4.40;;;21.30;51.50;;;;;;4947538;28;20282;-59
2022/04/14 07:04:38;;;;;;;8.43;4.53;;;21.30;51.60;;;;;;4947560;28;20282;-58
2022/04/14 07:07:09;;;;;;;8.95;5.00;;;21.30;51.60;;;;;;4950441;28;20743;-60
2022/04/14 07:09:39;;;;;;;8.02;5.15;;;21.20;51.60;;;;;;4949914;28;20262;-60
2022/04/14 07:12:13;;;;;;;8.13;4.55;;;21.20;51.60;;;;;;4949645;28;20290;-60
2022/04/14 07:14:43;;;;;;;6.70;4.80;;;21.20;51.70;;;;;;4950404;29;20234;-59
2022/04/14 07:17:16;;;;;;;7.68;4.60;;;21.10;51.60;;;;;;4949248;28;20205;-59
2022/04/14 07:19:47;;;;;;;5.90;4.45;;;21.10;51.70;;;;;;4950669;28;20217;-59
2022/04/14 07:22:20;;;;;;;7.78;4.45;;;21.10;51.70;;;;;;4936111;29;20207;-57
2022/04/14 07:24:51;;;;;;;7.15;4.40;;;21.00;51.70;;;;;;4932708;29;20287;-59
2022/04/14 07:27:24;;;;;;;7.18;4.55;;;21.00;51.70;;;;;;4933146;29;20226;-57
2022/04/14 07:29:54;;;;;;;5.72;3.75;;;21.00;51.70;;;;;;4932132;29;20282;-58
2022/04/14 07:32:25;;;;;;;5.95;4.05;;;20.90;51.70;;;;;;4932367;29;20630;-59
2022/04/14 07:34:56;;;;;;;7.38;4.25;;;20.90;51.70;;;;;;4931162;29;20223;-58
2022/04/14 07:37:26;;;;;;;7.20;4.30;;;20.90;51.80;;;;;;4931042;29;20287;-57
2022/04/14 07:39:56;;;;;;;6.20;4.35;;;20.80;51.80;;;;;;4932843;29;20307;-59
2022/04/14 07:42:33;;;;;;;6.50;4.40;;;20.80;51.80;;;;;;4932212;29;20286;-57
2022/04/14 07:45:04;;;;;;;7.07;4.32;;;20.70;51.80;;;;;;4932648;29;20287;-60
2022/04/14 07:47:35;;;;;;;6.63;4.45;;;20.70;51.90;;;;;;4932731;29;20316;-59
2022/04/14 07:50:06;;;;;;;5.25;4.15;;;20.70;51.90;;;;;;4932721;29;20203;-57
2022/04/14 07:52:47;;;;;;;6.13;4.15;;;20.60;51.90;;;;;;4932089;29;20715;-57
2022/04/14 07:55:22;;;;;;;6.90;3.95;;;20.60;51.90;;;;;;4932351;29;20258;-58
2022/04/14 07:57:56;;;;;;;6.68;4.47;;;20.50;51.90;;;;;;4932347;29;20286;-59
2022/04/14 08:00:27;;;;;;;7.03;3.95;;;20.50;52.00;;;;;;4932525;29;20739;-58
2022/04/14 08:02:59;;;;;;;5.32;4.03;;;20.50;52.00;;;;;;4932530;29;20215;-59
2022/04/14 08:05:32;;;;;;;6.18;4.03;;;20.50;52.00;;;;;;4932678;29;20720;-60
2022/04/14 08:08:03;;;;;;;7.22;4.18;;;20.40;52.00;;;;;;4932292;29;20195;-58
2022/04/14 08:10:33;;;;;;;4.90;3.78;;;20.40;52.10;;;;;;4932216;29;20235;-59
2022/04/14 08:13:06;;;;;;;5.60;3.85;;;20.40;52.10;;;;;;4932741;29;20310;-59
2022/04/14 08:15:38;;;;;;;6.75;4.22;;;20.30;52.10;;;;;;4932300;29;20262;-58
2022/04/14 08:18:09;;;;;;;6.65;4.28;;;20.30;52.10;;;;;;4931033;29;20195;-59
2022/04/14 08:20:41;;;;;;;6.65;3.97;;;20.30;52.10;;;;;;4932496;29;20207;-58
2022/04/14 08:23:14;;;;;;;6.68;4.00;;;20.20;52.10;;;;;;4932122;29;20228;-60
2022/04/14 08:25:44;;;;;;;5.60;3.67;;;20.20;52.20;;;;;;4932437;29;20683;-59
2022/04/14 08:28:17;;;;;;;5.63;3.92;;;20.20;52.20;;;;;;4932049;29;20291;-58
2022/04/14 08:30:47;;;;;;;5.90;3.72;;;20.20;52.20;;;;;;4932146;29;20204;-58
2022/04/14 08:33:20;;;;;;;4.78;3.47;;;20.10;52.20;;;;;;4931429;29;20346;-58
2022/04/14 08:35:51;;;;;;;6.10;4.30;;;20.10;52.30;;;;;;4936299;29;20688;-60
2022/04/14 08:38:21;;;;;;;5.70;3.70;;;20.00;52.30;;;;;;4935553;29;20286;-57
2022/04/14 08:41:00;;;;;;;6.30;3.80;;;20.00;52.30;;;;;;4935520;29;20286;-61
2022/04/14 08:43:35;;;;;;;5.32;3.97;;;20.00;52.30;;;;;;4935678;29;20230;-59
2022/04/14 08:46:06;;;;;;;5.57;3.95;;;19.90;52.30;;;;;;4935328;29;20285;-57
2022/04/14 08:48:39;;;;;;;5.32;3.60;;;19.90;52.30;;;;;;4935554;29;20290;-59
2022/04/14 08:51:14;;;;;;;5.63;3.38;;;19.90;52.30;;;;;;4935529;29;20282;-59
2022/04/14 08:53:44;;;;;;;5.57;3.33;;;19.90;52.40;;;;;;4934261;29;20211;-58
2022/04/14 08:56:15;;;;;;;5.57;3.58;;;19.80;52.40;;;;;;4934958;29;20231;-60
2022/04/14 08:58:48;;;;;;;5.00;3.45;;;19.80;52.50;;;;;;4935380;29;20606;-58
2022/04/14 09:01:19;;;;;;;4.38;3.28;;;19.80;52.50;;;;;;4934935;29;20294;-58
2022/04/14 09:03:50;;;;;;;5.18;3.50;;;19.80;52.50;;;;;;4934991;29;20302;-60
2022/04/14 09:06:20;;;;;;;4.57;3.20;;;19.70;52.50;;;;;;4935138;29;20298;-60
2022/04/14 09:08:51;;;;;;;5.00;3.30;;;19.70;52.50;;;;;;4936216;29;20195;-59
2022/04/14 09:11:21;;;;;;;4.53;3.20;;;19.60;52.50;;;;;;4935548;28;20655;-59
2022/04/14 09:13:54;;;;;;;4.78;3.22;;;19.60;52.50;;;;;;4935595;29;20687;-59
2022/04/14 09:16:25;;;;;;;4.18;3.40;;;19.60;52.60;;;;;;4934886;29;20227;-58
2022/04/14 09:18:56;;;;;;;3.97;3.20;;;19.60;52.60;;;;;;4939696;29;20195;-60
2022/04/14 09:21:27;;;;;;;5.18;3.38;;;19.60;52.60;;;;;;4950630;28;20207;-58
2022/04/14 09:23:57;;;;;;;5.20;2.83;;;19.50;52.60;;;;;;4951569;28;20242;-61
2022/04/14 09:26:28;;;;;;;3.40;2.50;;;19.50;52.60;;;;;;4952613;28;20286;-60
2022/04/14 09:29:11;;;;;;;3.53;2.70;;;19.40;52.60;;;;;;4952554;28;20679;-59
2022/04/14 09:31:54;;;;;;;3.70;3.03;;;19.40;52.60;;;;;;4951854;28;20195;-60
2022/04/14 09:34:48;;;;;;;4.32;2.75;;;19.40;52.70;;;;;;4952490;28;20627;-61
2022/04/14 09:37:20;;;;;;;4.68;3.17;;;19.40;52.70;;;;;;4952295;28;20199;-61
2022/04/14 09:40:02;;;;;;;3.78;2.65;;;19.30;52.70;;;;;;4951182;28;20254;-61
2022/04/14 09:42:35;;;;;;;4.60;3.00;;;19.30;52.80;;;;;;4952224;28;20889;-60
2022/04/14 09:45:25;;;;;;;4.43;3.08;;;19.30;52.80;;;;;;4951100;28;20282;-61
2022/04/14 09:47:56;;;;;;;4.55;3.05;;;19.30;52.80;;;;;;4952028;28;20223;-62
2022/04/14 09:50:31;;;;;;;3.85;2.85;;;19.20;52.80;;;;;;4951967;28;20201;-60
2022/04/14 09:53:07;;;;;;;4.13;3.08;;;19.20;52.80;;;;;;4951739;28;20298;-59
2022/04/14 09:55:38;;;;;;;4.40;3.00;;;19.20;52.90;;;;;;4951793;28;20238;-62
2022/04/14 09:58:17;;;;;;;3.97;2.78;;;19.20;52.90;;;;;;4951457;28;20195;-61
2022/04/14 10:00:51;;;;;;;3.00;2.47;;;19.10;52.90;;;;;;4952127;28;20195;-62
2022/04/14 10:03:22;;;;;;;3.25;2.63;;;19.10;53.50;;;;;;4951599;28;20298;-62
2022/04/14 10:05:54;;;;;;;3.20;2.42;;;19.10;52.90;;;;;;4952474;28;20278;-62
2022/04/14 10:08:24;;;;;;;4.13;2.70;;;19.10;52.90;;;;;;4951091;28;20714;-57
2022/04/14 10:11:08;;;;;;;7.10;2.65;;;19.00;52.90;;;;;;4951612;28;20202;-59
2022/04/14 10:13:39;;;;;;;7.28;2.53;;;19.00;53.30;;;;;;4950557;28;20297;-59
2022/04/14 10:16:13;;;;;;;6.15;2.55;;;19.00;53.50;;;;;;4951331;28;20613;-56
2022/04/14 10:18:43;;;;;;;4.82;2.55;;;19.00;53.70;;;;;;4951458;28;20191;-64
2022/04/14 10:21:15;;;;;;;3.47;2.22;;;19.00;53.90;;;;;;4951314;28;20285;-58
2022/04/14 10:23:45;;;;;;;5.88;2.72;;;19.00;54.30;;;;;;4950905;28;20258;-63
2022/04/14 10:26:17;;;;;;;6.72;2.70;;;19.00;54.50;;;;;;4950029;28;20205;-61
2022/04/14 10:28:48;;;;;;;4.88;2.20;;;19.00;54.70;;;;;;4950404;28;20286;-62
2022/04/14 10:31:22;;;;;;;4.40;2.30;;;18.90;54.60;;;;;;4950237;28;20195;-63
2022/04/14 10:33:54;;;;;;;5.30;2.35;;;19.00;54.80;;;;;;4951141;28;20249;-61
2022/04/14 10:36:25;;;;;;;5.53;3.00;;;18.90;54.60;;;;;;4951720;28;20231;-60
2022/04/14 10:38:56;;;;;;;7.97;3.10;;;18.90;54.60;;;;;;4949962;28;20285;-62
2022/04/14 10:41:30;;;;;;;5.57;2.60;;;18.90;54.80;;;;;;4951063;28;20282;-59
2022/04/14 10:44:04;;;;;;;7.18;2.88;;;18.90;54.80;;;;;;4949347;28;20309;-61
2022/04/14 10:46:41;;;;;;;5.45;2.70;;;18.80;54.60;;;;;;4951281;28;20282;-61
2022/04/14 10:49:16;;;;;;;4.82;3.17;;;18.80;54.70;;;;;;4950050;28;20191;-61
2022/04/14 10:51:47;;;;;;;5.95;2.97;;;18.90;55.20;;;;;;4950362;28;20198;-62
2022/04/14 10:54:19;;;;;;;3.83;2.70;;;18.80;54.50;;;;;;4950370;28;20631;-60
2022/04/14 10:56:52;;;;;;;4.68;2.72;;;18.80;54.60;;;;;;4950539;28;20950;-58
2022/04/14 10:59:24;;;;;;;5.55;3.05;;;18.80;54.50;;;;;;4948266;28;20214;-62
2022/04/14 11:02:04;;;;;;;4.93;2.75;;;18.70;54.40;;;;;;4950465;28;20286;-62
2022/04/14 11:04:50;;;;;;;6.47;2.90;;;18.70;54.40;;;;;;4946737;28;20199;-61
2022/04/14 11:07:21;;;;;;;4.18;2.95;;;18.70;54.40;;;;;;4947867;28;20290;-61
2022/04/14 11:09:57;;;;;;;7.95;4.20;;;18.70;54.40;;;;;;4950809;29;20548;-61
2022/04/14 11:12:29;;;;;;;6.90;3.90;;;18.70;54.60;;;;;;4949605;28;20285;-61
2022/04/14 11:15:02;;;;;;;5.05;3.38;;;18.60;55.00;;;;;;4943945;29;20195;-61
2022/04/14 11:18:07;;;;;;;4.80;2.95;;;18.60;55.20;;;;;;4947599;28;20231;-62
2022/04/14 11:20:57;;;;;;;5.88;3.15;;;18.60;55.10;;;;;;4950468;28;20206;-61
2022/04/14 11:23:31;;;;;;;4.78;3.00;;;18.60;55.00;;;;;;4942573;28;20219;-62
2022/04/14 11:26:10;;;;;;;4.22;2.72;;;18.60;54.90;;;;;;4934523;29;20297;-59
2022/04/14 11:28:43;;;;;;;4.43;2.70;;;18.50;54.80;;;;;;4933708;29;20203;-59
2022/04/14 11:31:35;;;;;;;5.43;3.28;;;18.50;54.70;;;;;;4932351;29;20290;-58
2022/04/14 11:34:09;;;;;;;3.63;2.58;;;18.50;54.70;;;;;;4928281;29;20319;-59
2022/04/14 11:36:46;;;;;;;5.50;2.90;;;18.50;54.60;;;;;;4932982;29;20278;-58
2022/04/14 11:39:25;;;;;;;4.18;2.80;;;18.40;54.50;;;;;;4931845;29;20230;-58
2022/04/14 11:41:56;;;;;;;5.18;3.00;;;18.40;54.50;;;;;;4932308;29;20195;-59
2022/04/14 11:44:31;;;;;;;3.40;2.65;;;18.40;54.50;;;;;;4930867;29;20259;-58
2022/04/14 11:47:04;;;;;;;4.78;3.05;;;18.40;54.50;;;;;;4931923;29;20210;-59
2022/04/14 11:49:38;;;;;;;3.97;2.60;;;18.30;54.40;;;;;;4913106;29;20259;-58
2022/04/14 11:52:10;;;;;;;5.47;2.65;;;18.30;54.40;;;;;;4913223;29;20196;-59
2022/04/14 11:54:41;;;;;;;4.85;2.65;;;18.30;54.40;;;;;;4929178;29;20200;-58
2022/04/14 11:57:13;;;;;;;7.10;2.72;;;18.30;54.40;;;;;;4932236;29;20322;-58
2022/04/14 11:59:44;;;;;;;4.10;2.70;;;18.30;54.40;;;;;;4932541;29;20226;-58
2022/04/14 12:02:18;;;;;;;4.65;3.00;;;18.30;54.40;;;;;;4931814;29;20246;-58
2022/04/14 12:04:51;;;;;;;3.03;2.33;;;18.20;54.30;;;;;;4932820;29;20195;-58
2022/04/14 12:07:23;;;;;;;3.42;2.20;;;18.20;54.30;;;;;;4931906;29;20708;-58
2022/04/14 12:10:02;;;;;;;3.20;2.33;;;18.20;54.30;;;;;;4935501;29;20286;-59
2022/04/14 12:12:35;;;;;;;3.78;2.40;;;18.20;54.30;;;;;;4936466;29;20230;-59
2022/04/14 12:15:07;;;;;;;3.85;2.72;;;18.10;54.20;;;;;;4936416;29;20294;-54
2022/04/14 12:17:39;;;;;;;2.33;2.10;;;18.10;54.30;;;;;;4936673;29;20659;-58
2022/04/14 12:20:12;;;;;;;3.85;2.40;;;18.10;54.30;;;;;;4936535;29;20205;-59
2022/04/14 12:22:43;;;;;;;3.58;2.50;;;18.10;54.20;;;;;;4936173;29;20258;-59
2022/04/14 12:25:14;;;;;;;4.88;2.50;;;18.10;54.20;;;;;;4935595;29;20245;-59
2022/04/14 12:27:48;;;;;;;4.65;2.65;;;18.10;54.20;;;;;;4935888;29;20687;-59
2022/04/14 12:30:22;;;;;;;4.05;2.47;;;18.00;54.10;;;;;;4935967;29;20217;-59
2022/04/14 12:33:03;;;;;;;3.83;2.35;;;18.00;54.20;;;;;;4935957;29;20309;-60
2022/04/14 12:35:38;;;;;;;3.05;2.15;;;18.00;54.10;;;;;;4936735;29;20290;-59
2022/04/14 12:38:16;;;;;;;3.55;2.20;;;18.00;54.20;;;;;;4918248;29;20595;-60
2022/04/14 12:41:00;;;;;;;4.50;2.13;;;18.00;54.20;;;;;;4935966;29;20690;-60
2022/04/14 12:43:37;;;;;;;3.47;2.33;;;17.90;54.20;;;;;;4935361;29;20214;-59
2022/04/14 12:46:25;;;;;;;3.40;2.13;;;17.90;54.20;;;;;;4935323;29;20262;-59
2022/04/14 12:49:06;;;;;;;3.42;2.10;;;17.90;54.20;;;;;;4935143;29;20739;-58
2022/04/14 12:51:40;;;;;;;4.28;2.42;;;17.90;54.20;;;;;;4935541;29;20571;-59
2022/04/14 12:54:16;;;;;;;2.90;2.17;;;17.90;54.20;;;;;;4935427;29;20219;-57
2022/04/14 12:56:59;;;;;;;3.38;2.20;;;17.80;54.70;;;;;;4935619;29;20753;-58
2022/04/14 12:59:30;;;;;;;3.60;2.13;;;17.80;54.20;;;;;;4935717;29;20751;-56
2022/04/14 13:02:07;;;;;;;3.45;2.10;;;17.80;54.20;;;;;;4935591;29;20199;-55
2022/04/14 13:04:39;;;;;;;2.55;1.98;;;17.80;54.20;;;;;;4935603;29;20203;-58
2022/04/14 13:07:13;;;;;;;3.20;2.08;;;17.80;54.20;;;;;;4939020;29;20196;-60
2022/04/14 13:10:00;;;;;;;3.35;2.20;;;17.80;54.10;;;;;;4935109;29;20203;-59
2022/04/14 13:12:44;;;;;;;3.50;1.90;;;17.80;54.20;;;;;;4935021;29;20759;-58